Geokinetics Inc (NASDAQOTH:GEOKQ)

CAPS Rating: 2 out of 5

The Company is a global provider of seismic data acquisition services in land, marsh and swamp and shallow water environments to the oil and natural gas industry.

Results 1 - 99 of 119 : 1 2 Next »
Top
Pick
Member Name Member
Rating
Start
Date
Call Time
Frame
Start
Price
Stock
Gain
Index
Gain
Score Commentary
artcorvelay < 20 5/14/2012 Outperform 1Y $1.32 -99.43% +56.90% -156.33 0 Comment
MoneyPlusSport < 20 1/25/2012 Underperform 5Y $2.00 -99.62% +60.54% +160.16 0 Comment
jdparksASI < 20 9/7/2011 Outperform 5Y $4.60 -99.84% +75.57% -175.41 0 Comment
GreenHillFarAway 28.90 8/22/2011 Outperform 5Y $3.99 -99.81% +86.21% -186.02 0 Comment
Rehydrogenated 32.20 3/29/2011 Outperform 5Y $8.68 -99.91% +60.72% -160.63 0 Comment
2011Fool 99.52 3/25/2011 Outperform NS $8.99 -99.92% +60.56% -160.48 0 Comment
LEGMAKER < 20 2/28/2011 Outperform 5Y $10.59 -99.93% +58.65% -158.58 0 Comment
hcve < 20 1/12/2011 Outperform 3W $9.41 -99.92% +64.52% -164.44 0 Comment
MagicMaggie < 20 12/7/2010 Outperform 5Y $9.35 -99.92% +70.02% -169.94 0 Comment
OberHund < 20 12/6/2010 Outperform 5Y $9.29 -99.92% +71.83% -171.75 0 Comment
tiger6667 < 20 12/1/2010 Outperform 5Y $8.51 -99.91% +75.31% -175.22 0 Comment
bullinnature 94.82 11/9/2009 11/8/2010 Outperform 3Y $12.72 -99.94% +95.20% -195.14 0 Comment
cletedinero < 20 10/18/2010 Outperform 5Y $7.31 -99.90% +78.43% -178.32 0 Comment
brilin 62.17 10/4/2010 Outperform 5Y $6.00 -99.88% +84.24% -184.12 0 Comment
smallandmidcap 97.01 8/10/2010 Underperform 5Y $4.51 -99.83% +88.09% +187.93 0 Comment
roth450 31.83 7/20/2010 Outperform NS $3.99 -99.81% +99.04% -198.85 0 Comment
EffinObama < 20 7/19/2010 Outperform 3Y $4.06 -99.82% +97.64% -197.45 0 Comment
thisyearslosers < 20 6/29/2010 Outperform 5Y $4.12 -99.82% +101.38% -201.19 0 Comment
startunderfive < 20 6/28/2010 Outperform 5Y $4.49 -99.83% +95.69% -195.52 0 Comment
institutionsdown 54.19 6/22/2010 Outperform 5Y $4.88 -99.85% +89.14% -188.99 0 Comment
obsoleteaccount < 20 6/21/2010 Outperform 5Y $4.91 -99.85% +89.62% -189.47 0 Comment
jroren 99.33 6/21/2010 Underperform 3M $5.36 -99.86% +86.28% +186.14 0 Comment
iddqkfyou < 20 5/11/2010 Outperform 5Y $6.30 -99.88% +83.12% -183.00 1 Comment
asitka 27.73 5/3/2010 Outperform 1Y $8.74 -99.91% +76.51% -176.43 0 Comment
Genomac 39.01 4/26/2010 Outperform 5Y $9.58 -99.92% +72.93% -172.86 0 Comment
HotDdogv2 < 20 4/26/2010 Outperform 5Y $9.58 -99.92% +72.93% -172.86 0 Comment
aliuce 31.34 4/23/2010 Outperform NS $9.53 -99.92% +73.75% -173.67 0 Comment
iamvoltron 24.23 4/22/2010 Outperform 5Y $8.47 -99.91% +75.88% -175.79 0 Comment
markantonythe3rd 31.01 4/20/2010 Outperform 5Y $8.21 -99.91% +74.73% -174.64 0 Comment
dashark44 94.75 4/19/2010 Outperform 5Y $7.81 -99.90% +77.40% -177.31 0 Comment
Powderiver < 20 4/12/2010 Outperform 5Y $7.94 -99.91% +76.00% -175.90 0 Comment
manjux < 20 4/1/2010 Underperform 3M $7.32 -99.90% +78.83% +178.73 0 Comment
blue2fire < 20 3/22/2010 Outperform 5Y $7.39 -99.90% +82.74% -182.64 0 Comment
StThomasMoreEsq2 95.98 12/29/2009 2/19/2010 Outperform 3M $9.89 -99.92% +86.94% -186.87 0 Comment
HasOrHasNot 26.24 1/28/2010 Outperform 3Y $10.04 -99.93% +91.20% -191.12 0 Comment
FreeMortal 29.12 1/20/2010 Outperform 5Y $10.34 -99.93% +85.57% -185.50 0 Comment
StGiannaMolla < 20 1/11/2010 Outperform 5Y $10.53 -99.93% +83.62% -183.55 0 Comment
Clockworker < 20 1/6/2010 Outperform 5Y $9.84 -99.92% +85.51% -185.43 0 Comment
TMFPlatoish 96.71 12/16/2009 Outperform 5Y $9.27 -99.92% +88.19% -188.11 0 Comment
chinneymartin 78.91 11/13/2009 Outperform 5Y $13.20 -99.94% +91.70% -191.65 0 Comment
wkcgx2 < 20 11/9/2009 Outperform 5Y $13.18 -99.94% +94.15% -194.09 0 Comment
outperformONLY < 20 10/19/2009 Outperform 5Y $19.49 -99.96% +93.20% -193.16 0 Comment
pennycruncher 50.01 10/19/2009 Outperform 5Y $19.49 -99.96% +93.20% -193.16 0 Comment
GIGManager < 20 10/8/2009 Outperform 3Y $19.24 -99.96% +97.36% -197.32 0 Comment
TotalStrange 96.37 8/12/2009 Outperform 1Y $14.58 -99.95% +110.15% -210.10 0 Comment
jddubya < 20 6/5/2009 Outperform 5Y $14.81 -99.95% +124.61% -224.56 0 Comment
TXmaverick < 20 6/2/2009 Underperform 3W $14.00 -99.95% +124.22% +224.16 1 Comment
marcet 71.94 5/28/2009 Outperform 5Y $13.26 -99.94% +134.21% -234.16 0 Comment
cwimbish 33.75 5/28/2009 Outperform 5Y $11.46 -99.93% +135.38% -235.31 1 Comment
theMovement 81.34 5/21/2009 Outperform 1Y $9.86 -99.92% +138.00% -237.92 0 Comment
unstoppablepeon < 20 10/27/2008 Underperform NS $6.01 -99.88% +149.95% +249.82 1 Comment
moonleg 23.28 10/22/2008 Underperform 1Y $6.45 -99.88% +131.83% +231.71 0 Comment
Chiownknee 78.73 10/20/2008 Outperform 5Y $8.28 -99.91% +124.36% -224.27 0 Comment
IWalker182 21.91 10/17/2008 Outperform NS $8.44 -99.91% +127.24% -227.15 0 Comment
wakoma < 20 10/8/2008 Outperform NS $12.80 -99.94% +121.67% -221.61 1 Comment
istilldontcare 97.47 9/18/2008 Outperform 5Y $17.34 -99.96% +85.91% -185.87 0 Comment
unotsomuch < 20 8/20/2008 Outperform 3Y $19.10 -99.96% +70.70% -170.66 0 Comment
ejtrains 54.01 8/11/2008 Outperform NS $20.00 -99.96% +67.92% -167.88 0 Comment
joetheboss 49.28 6/11/2008 Outperform 3Y $19.57 -99.96% +61.78% -161.74 1 Comment
Sqwii < 20 6/10/2008 Outperform 1Y $20.32 -99.96% +60.28% -160.25 1 Comment
floridabull33 58.78 5/22/2008 Outperform 3M $20.64 -99.96% +56.81% -156.78 0 Comment
GDragonsDad 61.14 5/7/2008 Outperform NS $19.04 -99.96% +54.89% -154.85 0 Comment
TexasGeoTech < 20 4/30/2008 Outperform 3M $19.04 -99.96% +56.23% -156.19 0 Comment
JCASS714 57.03 4/29/2008 Outperform 5Y $18.82 -99.96% +56.84% -156.80 0 Comment
tuckerjack 31.87 4/17/2008 Outperform 5Y $19.60 -99.96% +60.46% -160.42 0 Comment
greengal1 < 20 4/17/2008 Outperform 3Y $19.60 -99.96% +60.46% -160.42 1 Comment
ctnotebo 40.52 4/11/2008 Outperform 3Y $17.56 -99.96% +62.05% -162.00 0 Comment
louisianacoonie 23.45 3/31/2008 Outperform NS $17.95 -99.96% +65.48% -165.44 0 Comment
bengalmomof4 85.77 3/28/2008 Underperform 3M $17.78 -99.96% +64.32% +164.28 0 Comment
chad07gt 22.89 3/27/2008 Outperform NS $17.78 -99.96% +64.10% -164.06 0 Comment
MoltenTofu < 20 3/14/2008 Outperform NS $17.34 -99.96% +65.40% -165.35 0 Comment
AgendaPacific 34.90 3/14/2008 Outperform 3Y $17.34 -99.96% +65.40% -165.35 0 Comment
ToeInsider 33.01 3/10/2008 Outperform NS $16.26 -99.95% +69.18% -169.13 0 Comment
altitudeaddict 30.39 2/28/2008 Outperform 5Y $17.94 -99.96% +60.02% -159.98 0 Comment
tritterup 53.25 2/26/2008 Outperform NS $18.36 -99.96% +59.03% -158.99 0 Comment
arindamd < 20 2/26/2008 Outperform 1Y $17.79 -99.96% +60.04% -160.00 1 Comment
dmgchess 74.34 2/20/2008 Outperform 1Y $17.66 -99.96% +63.90% -163.86 0 Comment
aalvarma < 20 2/20/2008 Outperform 1Y $17.66 -99.96% +63.90% -163.86 0 Comment
thetoxman 78.79 2/14/2008 Outperform 1Y $17.31 -99.96% +60.36% -160.31 0 Comment
thatguy99 30.83 2/5/2008 Outperform 5Y $17.79 -99.96% +61.55% -161.51 0 Comment
mopomi 71.32 1/24/2008 Outperform 5Y $18.76 -99.96% +63.66% -163.62 0 Comment
ATWDLimited < 20 1/23/2008 Outperform NS $18.34 -99.96% +69.15% -169.11 0 Comment
financeman101 < 20 1/17/2008 Outperform NS $16.85 -99.96% +64.88% -164.84 0 Comment
evreeland 27.79 1/16/2008 Outperform 1Y $16.25 -99.95% +60.34% -160.29 0 Comment
Obyss 56.16 12/31/2007 Outperform 3W $19.14 -99.96% +49.29% -149.26 0 Comment
Kenster35OR 41.74 12/24/2007 Outperform 1Y $20.20 -99.96% +47.57% -147.53 0 Comment
StockRakedotcom < 20 12/13/2007 Outperform NS $22.40 -99.97% +48.85% -148.82 0 Comment
everything4less 57.61 12/13/2007 Outperform 1Y $22.40 -99.97% +48.85% -148.82 0 Comment
beachlokal < 20 12/12/2007 Outperform 5Y $23.10 -99.97% +47.67% -147.64 0 Comment
WavingSpices < 20 12/5/2007 Outperform NS $22.10 -99.97% +48.91% -148.88 0 Comment
SaltyGenes 51.37 11/27/2007 Outperform 5Y $22.14 -99.97% +55.76% -155.72 0 Comment
apper < 20 11/21/2007 Outperform 5Y $22.58 -99.97% +55.34% -155.31 0 Comment
ProjectJack < 20 11/5/2007 Outperform 1Y $19.90 -99.96% +46.88% -146.84 0 Comment
IntenseSpider 88.34 10/25/2007 Outperform NS $22.86 -99.97% +46.94% -146.91 0 Comment
tv5cents 95.20 10/23/2007 Outperform 5Y $22.00 -99.97% +45.76% -145.73 0 Comment
JR9901 84.21 10/22/2007 Outperform 5Y $21.85 -99.97% +48.30% -148.27 0 Comment
Garranova 88.09 10/22/2007 Outperform NS $21.85 -99.97% +48.30% -148.27 0 Comment
cleveland503 83.67 10/15/2007 Outperform NS $24.60 -99.97% +41.28% -141.25 0 Comment
ATLDARK31 < 20 10/12/2007 Outperform 5Y $24.50 -99.97% +42.01% -141.98 0 Comment
Results 1 - 99 of 119 : 1 2 Next »

Featured Broker Partners


Advertisement